Time;durP1;ratioP1;P1;durP2;ratioP2;P2;SDS_P1;SDS_P2;PMS_P1;PMS_P2;Temp;Humidity;BMP_temperature;BMP_pressure;BME280_temperature;BME280_humidity;BME280_pressure;Samples;Min_cycle;Max_cycle;Signal;HPM_P1;HPM_P2
2022/09/18 00:00:42;;;;;;;6.38;1.35;;;;;;;10.73;91.73;101549.78;4992249;28;20037;-76
2022/09/18 00:03:08;;;;;;;4.82;1.23;;;;;;;10.73;91.13;101557.97;5007303;28;20600;-76
2022/09/18 00:05:35;;;;;;;2.88;1.15;;;;;;;10.72;91.50;101552.59;4992293;28;20121;-75
2022/09/18 00:08:00;;;;;;;4.18;1.92;;;;;;;10.71;91.41;101557.16;4992121;28;20370;-75
2022/09/18 00:10:26;;;;;;;3.97;1.30;;;;;;;10.72;91.91;101550.75;4992336;28;20049;-75
2022/09/18 00:12:51;;;;;;;5.28;1.60;;;;;;;10.72;92.56;101547.13;4997777;28;20034;-75
2022/09/18 00:15:16;;;;;;;7.18;2.30;;;;;;;10.70;92.67;101543.66;4992296;28;20022;-76
2022/09/18 00:17:42;;;;;;;3.78;1.95;;;;;;;10.67;92.19;101546.56;4991998;28;20045;-77
2022/09/18 00:20:08;;;;;;;6.15;1.60;;;;;;;10.67;92.63;101550.16;5007040;28;20042;-76
2022/09/18 00:22:33;;;;;;;7.30;1.88;;;;;;;10.68;92.83;101545.59;4992154;28;20042;-76
2022/09/18 00:24:58;;;;;;;4.80;1.67;;;;;;;10.64;92.71;101541.31;4990901;28;20071;-76
2022/09/18 00:27:24;;;;;;;3.25;1.42;;;;;;;10.66;92.51;101542.09;5000238;28;20053;-77
2022/09/18 00:29:49;;;;;;;4.82;1.77;;;;;;;10.66;92.89;101534.78;4991828;28;20481;-75
2022/09/18 00:32:14;;;;;;;5.13;1.60;;;;;;;10.65;93.10;101535.78;4992138;28;20121;-78
2022/09/18 00:34:40;;;;;;;5.38;2.05;;;;;;;10.67;92.40;101535.66;5006650;28;20559;-76
2022/09/18 00:37:06;;;;;;;3.72;2.03;;;;;;;10.68;92.85;101540.16;4991900;28;20449;-77
2022/09/18 00:39:31;;;;;;;6.68;2.00;;;;;;;10.69;92.70;101539.19;5006801;28;20398;-76
2022/09/18 00:41:57;;;;;;;5.85;1.77;;;;;;;10.69;92.73;101537.34;4991892;28;20448;-76
2022/09/18 00:44:41;;;;;;;5.28;1.52;;;;;;;10.68;92.61;101551.94;4991025;28;20394;-77
2022/09/18 00:47:09;;;;;;;6.13;1.88;;;;;;;10.71;92.65;101546.28;5006521;28;20040;-77
2022/09/18 00:49:46;;;;;;;9.73;1.80;;;;;;;10.68;92.86;101534.72;4990712;28;20053;-76
2022/09/18 00:52:13;;;;;;;6.28;1.50;;;;;;;10.71;92.96;101537.22;4990187;28;20069;-76
2022/09/18 00:54:42;;;;;;;5.22;1.30;;;;;;;10.72;92.75;101533.53;4991328;28;21057;-75
2022/09/18 00:57:13;;;;;;;4.05;1.55;;;;;;;10.71;92.95;101535.38;5010526;28;20030;-75
2022/09/18 00:59:42;;;;;;;2.97;2.13;;;;;;;10.72;92.59;101538.97;5005965;28;20065;-76
2022/09/18 01:02:07;;;;;;;5.85;1.63;;;;;;;10.71;92.48;101551.72;5006101;28;20049;-76
2022/09/18 01:04:34;;;;;;;5.78;1.80;;;;;;;10.73;92.81;101552.50;5005875;28;20050;-77
2022/09/18 01:07:30;;;;;;;5.68;1.90;;;;;;;10.75;92.59;101552.41;4991214;28;20088;-77
2022/09/18 01:10:21;;;;;;;4.72;1.80;;;;;;;10.76;93.04;101561.44;5005808;28;20116;-76
2022/09/18 01:13:14;;;;;;;6.93;1.88;;;;;;;10.77;92.39;101569.53;4989857;28;20043;-76
2022/09/18 01:15:52;;;;;;;5.57;1.63;;;;;;;10.78;92.86;101560.38;5005727;28;20023;-76
2022/09/18 01:18:41;;;;;;;9.82;2.08;;;;;;;10.76;92.54;101556.00;5006127;28;20027;-76
2022/09/18 01:21:29;;;;;;;6.80;2.22;;;;;;;10.78;93.26;101556.78;5006146;28;20107;-76
2022/09/18 01:24:06;;;;;;;5.47;1.83;;;;;;;10.78;92.67;101552.22;4979422;28;20513;-76
2022/09/18 01:26:55;;;;;;;3.20;1.58;;;;;;;10.80;93.20;101549.41;5010134;28;20444;-77
2022/09/18 01:29:43;;;;;;;5.28;2.03;;;;;;;10.79;93.07;101547.66;5004262;28;20521;-76
2022/09/18 01:32:16;;;;;;;2.90;1.80;;;;;;;10.77;93.34;101545.03;5005472;28;20153;-78
2022/09/18 01:34:47;;;;;;;;;;;;;;;10.79;92.00;101540.38;4999346;28;20038;-77
2022/09/18 01:37:31;;;;;;;4.90;1.77;;;;;;;10.76;92.96;101536.94;4989094;28;19953;-77
2022/09/18 01:40:08;;;;;;;6.43;2.15;;;;;;;10.73;93.16;101535.31;4989205;28;20502;-77
2022/09/18 01:42:35;;;;;;;3.70;2.10;;;;;;;10.71;92.62;101537.22;4989090;28;20034;-77
2022/09/18 01:45:06;;;;;;;8.05;2.20;;;;;;;10.71;92.48;101537.22;5005322;28;20607;-77
2022/09/18 01:47:37;;;;;;;;;;;;;;;10.75;91.28;101529.75;5005441;28;20129;-77
2022/09/18 01:50:04;;;;;;;5.63;2.03;;;;;;;10.69;92.99;101528.31;5005132;28;19913;-77
2022/09/18 01:52:38;;;;;;;7.20;2.30;;;;;;;10.64;92.77;101535.88;5005167;28;20389;-77
2022/09/18 01:55:10;;;;;;;5.22;1.88;;;;;;;10.60;92.81;101540.63;4999740;28;20038;-77
2022/09/18 01:57:50;;;;;;;5.53;2.10;;;;;;;10.57;93.38;101529.03;5014304;28;20026;-77
2022/09/18 02:00:16;;;;;;;8.68;2.45;;;;;;;10.54;93.31;101521.06;4992655;28;20030;-76
2022/09/18 02:03:30;;;;;;;7.45;2.45;;;;;;;10.55;93.24;101514.69;4989789;28;20046;-78
2022/09/18 02:06:02;;;;;;;9.07;2.85;;;;;;;10.54;94.12;101526.50;4971224;28;20054;-76
2022/09/18 02:08:37;;;;;;;6.38;2.78;;;;;;;10.55;94.61;101520.13;4971211;28;20133;-77
2022/09/18 02:11:12;;;;;;;4.90;2.88;;;;;;;10.57;94.57;101520.88;4981391;28;20057;-77
2022/09/18 02:13:43;;;;;;;5.50;2.83;;;;;;;10.57;94.42;101521.75;5011189;28;20144;-77
2022/09/18 02:16:26;;;;;;;5.63;2.80;;;;;;;10.58;95.00;101523.50;5002670;28;20045;-77
2022/09/18 02:18:56;;;;;;;4.38;2.53;;;;;;;10.58;94.99;101514.47;5003675;28;20018;-77
2022/09/18 02:21:26;;;;;;;3.83;2.78;;;;;;;10.58;94.99;101514.47;5004957;28;20060;-77
2022/09/18 02:23:56;;;;;;;4.55;2.70;;;;;;;10.60;94.58;101513.41;4988480;28;20437;-77
2022/09/18 02:26:22;;;;;;;6.35;2.92;;;;;;;10.60;94.81;101507.97;4975586;28;20041;-76
2022/09/18 02:28:49;;;;;;;9.40;2.70;;;;;;;10.62;94.81;101507.88;4987651;28;20395;-76
2022/09/18 02:31:15;;;;;;;7.05;2.80;;;;;;;10.61;95.08;101500.69;5004794;28;20042;-76
2022/09/18 02:33:40;;;;;;;7.53;2.83;;;;;;;10.63;94.65;101504.16;4989674;28;20413;-76
2022/09/18 02:36:32;;;;;;;6.95;2.25;;;;;;;10.63;94.95;101498.72;4988642;28;20038;-77
2022/09/18 02:39:31;;;;;;;6.32;2.67;;;;;;;10.64;94.74;101495.94;4987253;28;20034;-77
2022/09/18 02:42:16;;;;;;;4.70;2.00;;;;;;;10.63;95.24;101504.16;5004737;28;20034;-78
2022/09/18 02:44:52;;;;;;;5.45;2.30;;;;;;;10.63;95.12;101499.63;4988138;28;20038;-76
2022/09/18 02:47:45;;;;;;;5.07;2.03;;;;;;;10.65;94.83;101504.97;5004661;28;20038;-76
2022/09/18 02:50:33;;;;;;;5.10;2.42;;;;;;;10.66;95.16;101506.72;4989470;28;20116;-78
2022/09/18 02:53:07;;;;;;;5.00;2.55;;;;;;;10.65;94.89;101494.94;4969545;28;20699;-78
2022/09/18 02:55:45;;;;;;;3.03;1.75;;;;;;;10.64;95.11;101495.94;4988268;28;20442;-77
2022/09/18 02:58:27;;;;;;;11.18;2.38;;;;;;;10.63;95.31;101498.72;5004395;28;20070;-77
2022/09/18 03:00:55;;;;;;;11.65;2.85;;;;;;;10.65;95.17;101492.22;5004214;28;20089;-77
2022/09/18 03:03:26;;;;;;;6.10;1.75;;;;;;;10.68;94.64;101491.19;5004439;28;20071;-76
2022/09/18 03:05:56;;;;;;;9.27;2.13;;;;;;;10.68;95.13;101492.06;4988715;28;20058;-78
2022/09/18 03:08:22;;;;;;;4.40;2.03;;;;;;;10.66;95.61;101490.38;4988007;28;20104;-78
2022/09/18 03:10:47;;;;;;;10.20;1.80;;;;;;;10.66;95.52;101488.53;5004650;28;20035;-78
2022/09/18 03:13:14;;;;;;;6.10;2.50;;;;;;;10.70;95.75;101494.66;4990378;28;20037;-77
2022/09/18 03:15:40;;;;;;;2.30;1.67;;;;;;;10.72;95.61;101490.91;4995517;28;20140;-77
2022/09/18 03:18:05;;;;;;;6.38;1.77;;;;;;;10.72;95.67;101492.72;5027661;28;20181;-77
2022/09/18 03:20:30;;;;;;;5.35;1.55;;;;;;;10.73;95.89;101481.75;4991936;28;20042;-77
2022/09/18 03:23:00;;;;;;;10.27;1.90;;;;;;;10.73;96.08;101481.75;4993176;28;20031;-77
2022/09/18 03:25:25;;;;;;;4.90;1.80;;;;;;;10.73;96.53;101484.47;5006860;28;20046;-77
2022/09/18 03:27:54;;;;;;;4.00;1.50;;;;;;;10.73;96.25;101481.75;5002910;28;20030;-77
2022/09/18 03:30:25;;;;;;;6.82;1.85;;;;;;;10.72;96.00;101474.56;5001548;28;20030;-79
2022/09/18 03:32:51;;;;;;;8.85;1.85;;;;;;;10.74;96.03;101474.47;4991564;28;20088;-78
2022/09/18 03:35:16;;;;;;;5.07;1.60;;;;;;;10.76;96.05;101480.66;5007173;28;20177;-78
2022/09/18 03:37:41;;;;;;;9.00;1.45;;;;;;;10.76;96.17;101471.63;4991504;28;20101;-77
2022/09/18 03:40:09;;;;;;;6.60;1.38;;;;;;;10.74;95.78;101474.47;5007679;28;20034;-78
2022/09/18 03:42:34;;;;;;;9.13;1.42;;;;;;;10.75;96.03;101478.06;4990948;28;20103;-78
2022/09/18 03:45:00;;;;;;;4.95;1.90;;;;;;;10.76;95.67;101475.22;5006574;28;20026;-77
2022/09/18 03:47:26;;;;;;;5.43;1.35;;;;;;;10.76;96.10;101472.50;4992277;28;20375;-78
2022/09/18 03:49:51;;;;;;;6.47;1.35;;;;;;;10.77;96.18;101470.66;5007479;28;20042;-78
2022/09/18 03:52:18;;;;;;;6.47;1.40;;;;;;;10.76;96.18;101463.47;5007634;28;20030;-77
2022/09/18 03:54:51;;;;;;;2.67;1.10;;;;;;;10.72;95.50;101462.78;5006367;28;20437;-78
2022/09/18 03:57:36;;;;;;;2.45;0.90;;;;;;;10.70;94.96;101462.88;5002064;28;20053;-77
2022/09/18 04:00:27;;;;;;;5.50;1.17;;;;;;;10.67;95.12;101452.19;4998316;28;20058;-78
2022/09/18 04:03:00;;;;;;;;;;;;;;;10.72;93.96;101451.88;4992392;28;20041;-78
2022/09/18 04:05:47;;;;;;;6.32;0.90;;;;;;;10.64;94.76;101446.09;5005181;28;19944;-78
2022/09/18 04:08:31;;;;;;;4.97;1.08;;;;;;;10.62;95.08;101456.16;5004813;28;20130;-78
2022/09/18 04:11:11;;;;;;;5.65;1.08;;;;;;;10.58;95.11;101455.47;5007076;28;20105;-77
2022/09/18 04:13:36;;;;;;;3.58;1.13;;;;;;;10.57;95.19;101455.59;5013934;28;20038;-78
2022/09/18 04:16:06;;;;;;;5.95;1.05;;;;;;;10.56;95.48;101457.44;5006949;28;20597;-78
2022/09/18 04:18:31;;;;;;;3.80;0.95;;;;;;;10.58;95.49;101458.19;5006844;28;20110;-78
2022/09/18 04:20:57;;;;;;;5.13;1.42;;;;;;;10.57;95.39;101450.16;4990933;28;20038;-79
2022/09/18 04:23:23;;;;;;;5.53;1.50;;;;;;;10.57;95.45;101458.31;5005260;28;20324;-78
2022/09/18 04:25:48;;;;;;;3.22;0.63;;;;;;;10.57;95.43;101452.88;5007011;28;20034;-79
2022/09/18 04:28:14;;;;;;;7.75;1.27;;;;;;;10.57;95.76;101455.59;5006046;28;20217;-78
2022/09/18 04:30:45;;;;;;;5.10;1.52;;;;;;;10.56;95.63;101459.28;5006541;28;20038;-78
2022/09/18 04:33:13;;;;;;;6.32;1.40;;;;;;;10.58;95.38;101460.06;5006676;28;20026;-78
2022/09/18 04:35:40;;;;;;;2.55;1.42;;;;;;;10.53;95.82;101452.19;5006991;28;20042;-79
2022/09/18 04:38:07;;;;;;;5.57;0.98;;;;;;;10.55;95.52;101460.25;5006814;28;20481;-78
2022/09/18 04:40:33;;;;;;;3.20;1.00;;;;;;;10.55;95.51;101462.97;5006725;28;20478;-78
2022/09/18 04:42:59;;;;;;;6.75;1.35;;;;;;;10.54;95.52;101469.38;4991426;28;20048;-77
2022/09/18 04:45:25;;;;;;;6.72;1.13;;;;;;;10.52;95.60;101463.16;5016553;28;20449;-78
2022/09/18 04:47:51;;;;;;;4.63;1.63;;;;;;;10.53;95.72;101460.34;5016836;28;20026;-77
2022/09/18 04:50:18;;;;;;;6.03;1.02;;;;;;;10.54;95.70;101467.56;5009082;28;20136;-77
2022/09/18 04:53:07;;;;;;;2.60;0.65;;;;;;;10.53;95.82;101464.91;4992508;28;20542;-77
2022/09/18 04:55:32;;;;;;;8.00;1.27;;;;;;;10.52;95.35;101464.03;5008659;28;20030;-78
2022/09/18 04:57:58;;;;;;;3.88;0.90;;;;;;;10.52;95.76;101460.44;5023722;28;20025;-77
2022/09/18 05:00:24;;;;;;;4.93;1.10;;;;;;;10.53;95.67;101470.34;5007583;28;20041;-77
2022/09/18 05:02:50;;;;;;;10.02;1.23;;;;;;;10.51;96.22;101459.56;5024931;28;20044;-77
2022/09/18 05:05:20;;;;;;;5.20;1.13;;;;;;;10.49;96.01;101458.78;5008599;28;20077;-75
2022/09/18 05:07:45;;;;;;;5.10;1.23;;;;;;;10.48;96.08;101455.19;5008003;28;20038;-78
2022/09/18 05:10:11;;;;;;;4.25;0.90;;;;;;;10.47;95.98;101453.44;5009004;28;20508;-77
2022/09/18 05:12:43;;;;;;;3.22;1.45;;;;;;;10.46;95.78;101448.09;5006756;28;20060;-77
2022/09/18 05:15:10;;;;;;;5.87;1.30;;;;;;;10.47;96.01;101456.16;5008373;28;20045;-76
2022/09/18 05:17:39;;;;;;;5.90;1.33;;;;;;;10.50;95.69;101459.69;5008294;28;20422;-77
2022/09/18 05:20:07;;;;;;;8.05;1.30;;;;;;;10.53;95.29;101464.91;5008487;28;20026;-77
2022/09/18 05:22:37;;;;;;;6.20;1.25;;;;;;;10.52;95.90;101463.16;5008878;28;20404;-77
2022/09/18 05:25:07;;;;;;;9.93;1.10;;;;;;;10.54;95.64;101470.28;4991670;28;20041;-77
2022/09/18 05:27:33;;;;;;;4.45;1.15;;;;;;;10.56;95.79;101471.03;5023035;28;20032;-76
2022/09/18 05:29:58;;;;;;;5.63;0.95;;;;;;;10.55;95.38;101469.28;5008251;28;20056;-77
2022/09/18 05:32:36;;;;;;;4.35;1.23;;;;;;;10.54;95.17;101459.41;5007234;28;20523;-76
2022/09/18 05:35:02;;;;;;;2.97;0.95;;;;;;;10.57;95.06;101467.34;5007995;28;20050;-76
2022/09/18 05:37:27;;;;;;;5.70;1.33;;;;;;;10.58;95.44;101477.25;4992330;28;20136;-78
2022/09/18 05:39:54;;;;;;;3.42;1.13;;;;;;;10.58;95.69;101474.53;5007542;28;20060;-77
2022/09/18 05:42:19;;;;;;;5.75;1.13;;;;;;;10.59;95.89;101473.56;5007437;28;20065;-76
2022/09/18 05:44:44;;;;;;;7.43;1.70;;;;;;;10.57;95.88;101456.47;5008053;28;20026;-79
2022/09/18 05:47:15;;;;;;;4.50;1.17;;;;;;;10.57;95.61;101455.59;5005309;28;20572;-77
2022/09/18 05:49:41;;;;;;;1.95;0.80;;;;;;;10.61;95.64;101459.88;5006862;28;20037;-77
2022/09/18 05:52:06;;;;;;;6.55;0.98;;;;;;;10.62;95.51;101459.75;5022477;28;20066;-78
2022/09/18 05:54:35;;;;;;;4.10;1.00;;;;;;;10.66;95.37;101466.75;5007549;28;20053;-77
2022/09/18 05:57:00;;;;;;;2.13;1.00;;;;;;;10.67;95.79;101463.06;5008081;28;20026;-77
2022/09/18 05:59:25;;;;;;;7.47;1.10;;;;;;;10.71;95.53;101463.75;5005604;28;20397;-77
2022/09/18 06:01:53;;;;;;;5.15;1.05;;;;;;;10.72;95.71;101466.41;5016629;28;20556;-78
2022/09/18 06:04:19;;;;;;;4.97;1.58;;;;;;;10.72;95.02;101471.84;5001961;28;20049;-78
2022/09/18 06:06:50;;;;;;;5.53;1.50;;;;;;;10.71;95.17;101461.03;5008212;28;20434;-78
2022/09/18 06:09:16;;;;;;;5.72;1.42;;;;;;;10.81;95.12;101466.75;5024590;28;20056;-77
2022/09/18 06:11:41;;;;;;;5.63;1.25;;;;;;;10.81;94.58;101454.03;5007942;28;20100;-77
2022/09/18 06:14:06;;;;;;;4.13;0.90;;;;;;;10.88;94.62;101452.69;5007103;28;20038;-78
2022/09/18 06:16:33;;;;;;;2.65;0.90;;;;;;;10.94;94.87;101467.75;5004833;28;20136;-78
2022/09/18 06:19:02;;;;;;;3.22;1.00;;;;;;;10.97;95.06;101471.16;5006670;28;20481;-78
2022/09/18 06:21:27;;;;;;;3.95;1.05;;;;;;;10.98;95.13;101462.00;5006820;28;20034;-78
2022/09/18 06:23:53;;;;;;;4.57;0.80;;;;;;;11.03;95.24;101455.38;5007243;28;20116;-77
2022/09/18 06:26:46;;;;;;;3.70;1.10;;;;;;;11.16;94.67;101459.06;5008391;28;20400;-78
2022/09/18 06:29:12;;;;;;;2.38;0.95;;;;;;;11.22;94.75;101451.34;5006826;28;20072;-78
2022/09/18 06:31:46;;;;;;;6.95;1.40;;;;;;;11.31;95.32;101460.78;5006962;28;20025;-77
2022/09/18 06:34:17;;;;;;;2.97;1.10;;;;;;;11.34;94.86;101460.59;5004760;28;20175;-78
2022/09/18 06:36:44;;;;;;;3.90;1.08;;;;;;;11.39;94.69;101447.53;5007616;28;20136;-77
2022/09/18 06:39:22;;;;;;;3.67;1.00;;;;;;;11.47;95.27;101452.44;5006832;28;20068;-76
2022/09/18 06:41:52;;;;;;;4.47;1.63;;;;;;;11.51;94.80;101448.56;4991863;28;20029;-77
2022/09/18 06:44:22;;;;;;;4.18;0.95;;;;;;;11.56;93.86;101450.97;5018476;28;20458;-77
2022/09/18 06:46:58;;;;;;;5.72;1.02;;;;;;;11.58;94.17;101463.53;5006125;28;20030;-77
2022/09/18 06:49:33;;;;;;;6.10;1.48;;;;;;;11.61;93.46;101465.16;5010511;28;20025;-78
2022/09/18 06:51:59;;;;;;;4.75;1.30;;;;;;;11.60;93.46;101466.16;5010660;28;20466;-78
2022/09/18 06:54:24;;;;;;;4.38;1.20;;;;;;;11.63;93.93;101461.38;5011328;28;20389;-78
2022/09/18 06:56:50;;;;;;;4.90;1.13;;;;;;;11.67;93.76;101448.41;4992316;28;20042;-76
2022/09/18 06:59:17;;;;;;;4.05;1.17;;;;;;;11.69;94.15;101454.63;4992401;28;20113;-78
2022/09/18 07:01:45;;;;;;;5.00;1.38;;;;;;;11.78;94.11;101458.59;5006382;28;20130;-78
2022/09/18 07:04:16;;;;;;;7.25;1.42;;;;;;;11.84;93.30;101458.19;4997467;28;20051;-77
2022/09/18 07:06:44;;;;;;;7.97;1.02;;;;;;;11.92;93.47;101466.72;5008655;28;20030;-77
2022/09/18 07:09:10;;;;;;;3.90;1.30;;;;;;;11.97;94.24;101461.84;5008259;28;20038;-77
2022/09/18 07:11:50;;;;;;;6.15;1.50;;;;;;;12.00;93.92;101458.91;4993836;28;20046;-77
2022/09/18 07:14:16;;;;;;;6.93;1.35;;;;;;;11.98;93.01;101449.94;4990557;28;20041;-77
2022/09/18 07:16:41;;;;;;;9.27;2.25;;;;;;;11.99;93.13;101454.44;5024258;28;20052;-76
2022/09/18 07:19:06;;;;;;;4.95;1.40;;;;;;;12.02;92.99;101456.94;5009386;28;20026;-77
2022/09/18 07:21:33;;;;;;;4.03;1.38;;;;;;;12.11;93.63;101455.44;5010352;28;20042;-77
2022/09/18 07:23:59;;;;;;;5.38;1.27;;;;;;;12.14;93.22;101447.91;5010415;28;20213;-77
2022/09/18 07:26:24;;;;;;;5.07;1.05;;;;;;;12.14;93.32;101466.16;5012766;28;20316;-76
2022/09/18 07:28:51;;;;;;;8.50;1.73;;;;;;;12.06;93.02;101449.44;5008845;28;20030;-76
2022/09/18 07:31:25;;;;;;;3.03;1.33;;;;;;;12.08;93.13;101459.28;5024695;28;20083;-76
2022/09/18 07:33:53;;;;;;;6.53;1.60;;;;;;;12.07;93.17;101452.03;5024173;28;20026;-77
2022/09/18 07:36:21;;;;;;;6.28;1.70;;;;;;;12.08;93.25;101451.09;5010543;28;20041;-77
2022/09/18 07:38:49;;;;;;;6.22;1.40;;;;;;;12.10;92.99;101443.66;5010880;28;20065;-77
2022/09/18 07:41:17;;;;;;;7.07;2.03;;;;;;;12.16;93.04;101439.63;5007023;28;20031;-76
2022/09/18 07:43:43;;;;;;;5.72;1.38;;;;;;;12.25;93.62;101445.31;4991610;28;20032;-77
2022/09/18 07:46:09;;;;;;;3.95;1.73;;;;;;;12.41;94.12;101442.41;5007250;28;20034;-77
2022/09/18 07:48:36;;;;;;;3.53;1.67;;;;;;;12.54;94.12;101434.19;4993641;28;20027;-77
2022/09/18 07:51:12;;;;;;;6.40;1.65;;;;;;;12.64;93.75;101435.31;5027246;28;20508;-77
2022/09/18 07:53:40;;;;;;;4.40;2.00;;;;;;;12.73;93.17;101423.72;5010553;28;20485;-77
2022/09/18 07:56:08;;;;;;;5.22;1.75;;;;;;;12.82;92.38;101430.34;5007758;28;20030;-77
2022/09/18 07:58:35;;;;;;;3.55;1.63;;;;;;;12.93;92.48;101429.59;5006198;28;20031;-77
2022/09/18 08:01:04;;;;;;;4.75;1.85;;;;;;;13.07;92.47;101426.72;4991951;28;20120;-77
2022/09/18 08:03:32;;;;;;;7.43;1.83;;;;;;;13.18;92.68;101421.31;4990646;28;20041;-77
2022/09/18 08:06:18;;;;;;;3.20;1.83;;;;;;;13.25;92.78;101409.00;5004546;28;20066;-77
2022/09/18 08:09:12;;;;;;;6.43;2.30;;;;;;;13.40;92.53;101406.97;5003279;28;20096;-76
2022/09/18 08:11:56;;;;;;;5.13;2.13;;;;;;;13.53;91.48;101426.91;4997354;28;20122;-78
2022/09/18 08:14:28;;;;;;;8.05;1.83;;;;;;;13.48;90.04;101415.47;5008995;28;20038;-77
2022/09/18 08:17:13;;;;;;;2.95;1.40;;;;;;;13.42;89.94;101436.91;5004730;28;20041;-77
2022/09/18 08:20:02;;;;;;;8.02;1.65;;;;;;;13.35;90.04;101444.69;4994093;28;20423;-77
2022/09/18 08:22:41;;;;;;;2.97;1.45;;;;;;;13.38;90.19;101433.53;5006985;28;20089;-77
2022/09/18 08:25:08;;;;;;;4.93;1.48;;;;;;;13.47;90.77;101430.09;5006926;28;20026;-77
2022/09/18 08:27:37;;;;;;;6.72;1.60;;;;;;;13.50;89.59;101429.88;5001796;28;20061;-78
2022/09/18 08:30:05;;;;;;;7.32;1.52;;;;;;;13.53;90.46;101434.25;5006747;28;20045;-77
2022/09/18 08:32:32;;;;;;;3.50;1.23;;;;;;;13.51;90.15;101434.34;4991553;28;20041;-77
2022/09/18 08:34:59;;;;;;;6.07;1.27;;;;;;;13.56;89.66;101434.00;4990921;28;20112;-77
2022/09/18 08:37:27;;;;;;;6.75;1.40;;;;;;;13.64;89.97;101437.03;5006724;28;20046;-78
2022/09/18 08:40:19;;;;;;;5.43;1.50;;;;;;;13.73;90.95;101443.66;4987996;28;20103;-77
2022/09/18 08:43:04;;;;;;;7.80;1.30;;;;;;;13.78;89.79;101444.19;5006413;28;20034;-77
2022/09/18 08:45:57;;;;;;;5.28;1.20;;;;;;;13.83;89.07;101432.91;4990059;28;20114;-77
2022/09/18 08:48:45;;;;;;;6.60;1.35;;;;;;;13.79;89.45;101429.50;5006398;28;20129;-77
2022/09/18 08:51:21;;;;;;;5.82;1.00;;;;;;;13.80;87.88;101423.06;4990279;28;20034;-77
2022/09/18 08:53:53;;;;;;;4.88;1.35;;;;;;;13.84;86.16;101434.63;5006483;28;20465;-77
2022/09/18 08:56:35;;;;;;;8.30;1.13;;;;;;;13.85;88.14;101440.00;5010040;28;20033;-76
2022/09/18 08:59:41;;;;;;;2.17;1.10;;;;;;;13.81;87.66;101423.94;5009065;28;20042;-77
2022/09/18 09:02:18;;;;;;;7.00;1.10;;;;;;;13.81;88.18;101437.63;5006147;28;20042;-77
2022/09/18 09:04:45;;;;;;;7.35;1.50;;;;;;;13.83;87.32;101433.75;5006416;28;20061;-77
2022/09/18 09:07:23;;;;;;;3.58;1.10;;;;;;;13.86;88.53;101435.41;4989892;28;20034;-77
2022/09/18 09:10:18;;;;;;;4.90;1.20;;;;;;;13.92;87.75;101437.66;4989801;28;20178;-77
2022/09/18 09:13:19;;;;;;;1.45;0.80;;;;;;;14.03;88.21;101438.59;4981458;28;20101;-77
2022/09/18 09:15:58;;;;;;;4.93;1.23;;;;;;;14.06;86.31;101442.94;4980848;28;20042;-77
2022/09/18 09:18:31;;;;;;;3.92;1.25;;;;;;;14.09;86.39;101448.19;5005759;28;20393;-77
2022/09/18 09:21:10;;;;;;;3.05;1.40;;;;;;;14.09;86.31;101450.03;4989745;28;20490;-77
2022/09/18 09:23:59;;;;;;;2.03;0.90;;;;;;;14.07;85.97;101454.75;4995217;28;20021;-77
2022/09/18 09:26:50;;;;;;;6.05;1.38;;;;;;;13.97;86.16;101440.91;5026280;28;20095;-77
2022/09/18 09:29:38;;;;;;;2.97;0.93;;;;;;;13.83;86.59;101441.09;5004440;28;20098;-77
2022/09/18 09:32:43;;;;;;;3.50;1.02;;;;;;;13.76;86.87;101449.78;5004608;28;20053;-78
2022/09/18 09:35:40;;;;;;;6.28;0.98;;;;;;;13.74;86.73;101451.75;5004567;28;20084;-77
2022/09/18 09:38:26;;;;;;;5.93;0.93;;;;;;;13.83;87.33;101452.91;5005415;28;20062;-78
2022/09/18 09:40:53;;;;;;;3.83;0.95;;;;;;;13.90;87.97;101447.84;5005427;28;20470;-78
2022/09/18 09:43:38;;;;;;;2.42;0.70;;;;;;;13.96;87.58;101444.63;5005387;28;20110;-78
2022/09/18 09:46:19;;;;;;;2.65;0.77;;;;;;;13.91;86.52;101438.66;5003301;28;20049;-78
2022/09/18 09:48:54;;;;;;;2.90;0.80;;;;;;;13.94;85.85;101439.31;5005083;28;20383;-76
2022/09/18 09:51:58;;;;;;;6.03;1.27;;;;;;;14.03;86.79;101435.84;5005568;28;20030;-77
2022/09/18 09:54:24;;;;;;;2.03;0.82;;;;;;;14.06;83.62;101420.19;4988786;28;20064;-78
2022/09/18 09:57:01;;;;;;;1.67;0.70;;;;;;;14.14;85.91;101421.31;4996351;28;20036;-77
2022/09/18 09:59:37;;;;;;;4.28;1.00;;;;;;;14.14;83.66;101413.13;5004061;28;20120;-76
2022/09/18 10:03:16;;;;;;;4.57;0.77;;;;;;;14.25;85.88;101395.84;5005367;28;20049;-78
2022/09/18 10:05:55;;;;;;;6.38;1.30;;;;;;;14.41;85.37;101398.22;4957684;28;20158;-77
2022/09/18 10:08:30;;;;;;;4.90;1.25;;;;;;;14.53;85.76;101406.38;5004920;28;20470;-77
2022/09/18 10:11:01;;;;;;;1.83;0.80;;;;;;;14.61;85.36;101411.25;5005198;28;20405;-77
2022/09/18 10:13:51;;;;;;;5.07;1.20;;;;;;;14.65;84.56;101403.66;4994652;28;20034;-78
2022/09/18 10:16:35;;;;;;;4.07;1.35;;;;;;;14.73;84.94;101409.34;5003449;28;20484;-78
2022/09/18 10:19:01;;;;;;;;;;;;;;;14.88;85.21;101399.91;4997313;28;20539;-77
2022/09/18 10:21:33;;;;;;;2.10;0.90;;;;;;;14.98;84.86;101400.03;5007563;28;20304;-77
2022/09/18 10:24:15;;;;;;;1.77;0.80;;;;;;;15.15;84.22;101404.09;5007579;28;20112;-76
2022/09/18 10:26:47;;;;;;;4.38;0.95;;;;;;;15.28;84.60;101399.34;5007210;28;20056;-78
2022/09/18 10:29:16;;;;;;;3.63;1.10;;;;;;;15.40;83.49;101400.22;5006419;28;20036;-77
2022/09/18 10:31:55;;;;;;;3.10;1.25;;;;;;;15.44;83.78;101412.66;4987192;28;20430;-78
2022/09/18 10:34:42;;;;;;;3.42;1.00;;;;;;;15.51;84.26;101409.25;4993723;28;20493;-77
2022/09/18 10:37:14;;;;;;;1.95;0.93;;;;;;;15.54;82.46;101406.25;5004716;28;20058;-77
2022/09/18 10:39:51;;;;;;;1.95;0.90;;;;;;;15.62;83.37;101401.97;4988916;28;20386;-77
2022/09/18 10:42:21;;;;;;;3.30;1.02;;;;;;;15.60;82.79;101413.09;4988383;28;20034;-77
2022/09/18 10:44:52;;;;;;;2.38;0.93;;;;;;;15.61;80.42;101397.50;5004724;28;20021;-77
2022/09/18 10:47:34;;;;;;;5.95;1.75;;;;;;;15.59;81.07;101389.41;5004439;28;20524;-77
2022/09/18 10:50:05;;;;;;;3.83;1.23;;;;;;;15.54;80.84;101391.69;5010281;28;20080;-77
2022/09/18 10:52:34;;;;;;;6.13;1.08;;;;;;;15.44;80.37;101397.06;5007734;28;20033;-77
2022/09/18 10:55:14;;;;;;;9.32;1.05;;;;;;;15.33;80.39;101386.13;5004964;28;20029;-76
2022/09/18 10:58:00;;;;;;;2.40;0.85;;;;;;;15.17;79.47;101386.53;4985779;28;20585;-77
2022/09/18 11:00:28;;;;;;;1.77;0.90;;;;;;;14.87;80.32;101420.06;5002444;28;20456;-77
2022/09/18 11:03:04;;;;;;;2.20;0.80;;;;;;;14.51;80.85;101443.97;5014667;28;20577;-76
2022/09/18 11:05:36;;;;;;;2.50;0.70;;;;;;;14.10;79.30;101447.19;5002926;28;20042;-77
2022/09/18 11:08:18;;;;;;;3.60;0.68;;;;;;;13.70;80.10;101409.22;5002351;28;20038;-78
2022/09/18 11:10:54;;;;;;;1.88;0.52;;;;;;;13.49;81.49;101406.25;4991431;28;20034;-78
2022/09/18 11:13:25;;;;;;;2.17;0.60;;;;;;;13.47;82.41;101416.44;5003394;28;20039;-75
2022/09/18 11:15:57;;;;;;;5.93;1.20;;;;;;;13.45;83.47;101415.69;5004139;28;20117;-76
2022/09/18 11:18:26;;;;;;;6.30;0.80;;;;;;;13.37;83.24;101419.97;5004034;28;20721;-77
2022/09/18 11:20:56;;;;;;;3.47;0.70;;;;;;;13.24;83.50;101430.94;5004399;28;20096;-77
2022/09/18 11:23:35;;;;;;;4.50;0.65;;;;;;;13.25;84.06;101428.13;5007613;28;20033;-78
2022/09/18 11:26:25;;;;;;;4.47;0.85;;;;;;;13.27;85.44;101420.66;5024361;28;20026;-78
2022/09/18 11:29:22;;;;;;;3.08;0.68;;;;;;;13.42;85.76;101431.44;5002789;28;20042;-78
2022/09/18 11:32:12;;;;;;;1.13;0.60;;;;;;;13.50;85.49;101439.94;5004150;28;20326;-77
2022/09/18 11:34:48;;;;;;;2.83;1.25;;;;;;;13.59;85.51;101432.91;5006790;28;20057;-78
2022/09/18 11:37:33;;;;;;;3.65;0.82;;;;;;;13.65;85.20;101435.16;5020382;28;20025;-76
2022/09/18 11:40:07;;;;;;;7.20;0.80;;;;;;;13.58;86.35;101422.97;5011287;28;20141;-78
2022/09/18 11:42:43;;;;;;;3.05;0.80;;;;;;;13.62;85.10;101433.56;5010027;28;20069;-78
2022/09/18 11:45:25;;;;;;;3.53;1.33;;;;;;;13.61;86.42;101434.53;4991348;28;20034;-78
2022/09/18 11:48:01;;;;;;;6.22;0.90;;;;;;;13.55;85.86;101439.59;5007272;28;20069;-76
2022/09/18 11:50:32;;;;;;;2.17;0.90;;;;;;;13.47;86.74;101438.28;5007487;28;20038;-77
2022/09/18 11:53:14;;;;;;;6.85;1.42;;;;;;;13.44;86.99;101451.34;5003619;28;20052;-77
2022/09/18 11:56:07;;;;;;;6.38;1.15;;;;;;;13.35;87.19;101455.63;5025773;28;20124;-78